METAR Data
IDs: Format: Raw Decoded Include TAF

Data at: 2054 UTC 18 Apr 2021

METAR for:KAUS (Austin/Bergstrom Int, TX, US)
Text:KAUS 181953Z 02008KT 10SM -RA FEW050 BKN120 BKN200 17/04 A3012 RMK AO2 RAB42 SLP198 ACC N AND SE P0000 T01670044
Temperature: 16.7°C ( 62°F)
Dewpoint: 4.4°C ( 40°F) [RH = 44%]
Pressure (altimeter):30.12 inches Hg (1020.1 mb) [Sea level pressure: 1019.8 mb]
Winds:from the NNE (20 degrees) at 9 MPH (8 knots; 4.1 m/s)
Visibility:10 or more sm (16+ km)
Ceiling:12000 feet AGL
Clouds: few clouds at 5000 feet AGL, broken clouds at 12000 feet AGL, broken clouds at 20000 feet AGL
Weather:-RA (light rain)